Time;durP1;ratioP1;P1;durP2;ratioP2;P2;SDS_P1;SDS_P2;PMS_P1;PMS_P2;Temp;Humidity;BMP_temperature;BMP_pressure;BME280_temperature;BME280_humidity;BME280_pressure;Samples;Min_cycle;Max_cycle;Signal;HPM_P1;HPM_P2
2023/04/21 00:03:27;;;;;;;28.10;16.00;;;;;;;7.22;100.00;101777.25;10212543;28;20063;-73
2023/04/21 00:08:27;;;;;;;24.73;15.43;;;;;;;7.30;100.00;101773.47;10197831;28;20032;-74
2023/04/21 00:13:28;;;;;;;26.10;15.73;;;;;;;7.26;100.00;101777.66;10244333;28;20126;-73
2023/04/21 00:18:28;;;;;;;27.58;16.30;;;;;;;7.21;100.00;101775.56;10211955;28;20031;-73
2023/04/21 00:23:29;;;;;;;29.95;16.65;;;;;;;6.70;100.00;101688.53;10212508;28;20480;-73
2023/04/21 00:28:29;;;;;;;27.98;15.65;;;;;;;7.04;100.00;101747.72;10211172;28;20055;-73
2023/04/21 00:33:30;;;;;;;25.85;15.00;;;;;;;7.01;100.00;101753.63;10227392;28;20047;-70
2023/04/21 00:38:30;;;;;;;31.75;16.42;;;;;;;7.04;100.00;101745.00;10197071;29;20061;-73
2023/04/21 00:43:31;;;;;;;31.60;16.17;;;;;;;7.01;100.00;101744.59;10211389;29;20054;-73
2023/04/21 00:48:32;;;;;;;30.77;16.38;;;;;;;6.92;100.00;101724.75;10195570;29;20067;-73
2023/04/21 00:53:32;;;;;;;25.63;16.23;;;;;;;6.90;100.00;101723.28;10203366;28;20035;-73
2023/04/21 00:58:33;;;;;;;25.90;14.80;;;;;;;6.90;100.00;101721.38;10262139;28;20035;-73
2023/04/21 01:03:33;;;;;;;26.33;16.33;;;;;;;6.93;100.00;101714.69;10210858;29;20040;-73
2023/04/21 01:08:34;;;;;;;23.13;14.95;;;;;;;6.86;100.00;101700.97;10194722;29;20063;-73
2023/04/21 01:13:34;;;;;;;25.30;14.63;;;;;;;6.92;100.00;101716.53;10227987;28;20054;-73
2023/04/21 01:18:38;;;;;;;25.55;14.18;;;;;;;6.89;100.00;101708.78;10232337;28;20108;-73
2023/04/21 01:23:41;;;;;;;26.00;14.70;;;;;;;6.67;100.00;101678.00;10218001;28;20062;-73
2023/04/21 01:28:42;;;;;;;28.02;15.80;;;;;;;6.78;100.00;101691.09;10217996;28;20503;-73
2023/04/21 01:33:43;;;;;;;26.38;15.95;;;;;;;6.82;100.00;101706.03;10218533;28;20066;-73
2023/04/21 01:38:44;;;;;;;23.83;14.90;;;;;;;6.83;100.00;101696.75;10201916;28;20055;-73
2023/04/21 01:43:44;;;;;;;23.10;14.85;;;;;;;6.82;100.00;101705.16;10201156;28;20043;-73
2023/04/21 01:48:45;;;;;;;28.42;15.52;;;;;;;6.71;100.00;101692.13;10212261;28;20051;-74
2023/04/21 01:53:45;;;;;;;26.73;15.63;;;;;;;6.66;100.00;101682.63;10228918;28;20435;-72
2023/04/21 01:58:46;;;;;;;32.53;16.30;;;;;;;6.67;100.00;101681.56;10247856;28;20047;-71
2023/04/21 02:03:46;;;;;;;34.47;16.60;;;;;;;6.73;100.00;101690.00;10229053;28;20043;-72
2023/04/21 02:08:47;;;;;;;30.02;16.08;;;;;;;6.59;100.00;101679.03;10224027;29;20508;-73
2023/04/21 02:13:47;;;;;;;28.23;15.90;;;;;;;6.54;100.00;101688.94;10208319;28;20035;-72
2023/04/21 02:18:48;;;;;;;27.92;15.93;;;;;;;6.55;100.00;101705.16;10190893;29;20032;-73
2023/04/21 02:23:48;;;;;;;28.25;18.13;;;;;;;6.44;100.00;101697.53;10208021;29;20031;-73
2023/04/21 02:28:49;;;;;;;31.05;16.77;;;;;;;6.43;100.00;101684.94;10192795;29;20547;-73
2023/04/21 02:33:50;;;;;;;30.70;16.73;;;;;;;6.25;100.00;101659.00;10193306;29;20488;-73
2023/04/21 02:38:50;;;;;;;33.22;18.17;;;;;;;6.32;100.00;101674.56;10177762;29;20052;-73
2023/04/21 02:43:51;;;;;;;31.63;17.70;;;;;;;6.35;100.00;101693.31;10151910;29;20045;-73
2023/04/21 02:48:51;;;;;;;31.17;18.77;;;;;;;5.41;100.00;101544.53;10137168;29;20052;-73
2023/04/21 02:53:52;;;;;;;38.65;17.50;;;;;;;6.29;100.00;101702.34;10153234;29;20036;-73
2023/04/21 02:58:52;;;;;;;30.52;17.35;;;;;;;6.37;100.00;101702.16;10137310;29;20056;-74
2023/04/21 03:03:53;;;;;;;38.28;17.08;;;;;;;6.03;100.00;101665.66;10153606;29;20036;-73
2023/04/21 03:08:53;;;;;;;27.65;17.63;;;;;;;6.43;100.00;101690.41;10136641;29;20059;-73
2023/04/21 03:13:54;;;;;;;25.63;15.90;;;;;;;6.47;100.00;101697.13;10137702;29;20044;-73
2023/04/21 03:18:55;;;;;;;26.83;16.02;;;;;;;6.35;100.00;101671.44;10152503;29;20059;-73
2023/04/21 03:23:55;;;;;;;31.52;16.35;;;;;;;6.44;100.00;101697.53;10152304;29;20668;-72
2023/04/21 03:28:56;;;;;;;25.05;15.68;;;;;;;6.46;100.00;101689.97;10137221;29;20040;-73
2023/04/21 03:33:56;;;;;;;30.15;16.20;;;;;;;6.35;100.00;101677.75;10159601;29;20036;-73
2023/04/21 03:38:57;;;;;;;29.52;16.40;;;;;;;6.38;100.00;101684.69;10186493;29;20055;-73
2023/04/21 03:43:57;;;;;;;26.33;16.08;;;;;;;6.33;100.00;101679.00;10229164;29;20118;-73
2023/04/21 03:48:58;;;;;;;26.25;15.48;;;;;;;6.23;100.00;101668.44;10197259;29;20476;-72
2023/04/21 03:53:59;;;;;;;25.58;15.35;;;;;;;6.24;100.00;101668.25;10214499;29;20036;-73
2023/04/21 03:58:59;;;;;;;24.77;15.48;;;;;;;6.18;100.00;101655.41;10213151;29;20059;-73
2023/04/21 04:04:00;;;;;;;25.13;17.02;;;;;;;6.18;100.00;101658.13;10213830;29;20040;-72
2023/04/21 04:09:03;;;;;;;27.73;15.02;;;;;;;6.18;100.00;101669.06;10213180;28;20122;-73
2023/04/21 04:14:03;;;;;;;24.15;15.13;;;;;;;6.18;100.00;101666.34;10210876;29;20072;-73
2023/04/21 04:19:04;;;;;;;23.92;14.50;;;;;;;6.20;100.00;101669.72;10212693;29;20040;-72
2023/04/21 04:24:04;;;;;;;30.60;15.95;;;;;;;6.15;100.00;101677.69;10196737;29;20068;-72
2023/04/21 04:29:09;;;;;;;29.73;16.05;;;;;;;6.08;100.00;101652.22;10165724;29;20070;-72
2023/04/21 04:34:10;;;;;;;24.17;14.98;;;;;;;6.15;100.00;101672.22;10196068;28;20039;-73
2023/04/21 04:39:11;;;;;;;22.00;14.30;;;;;;;6.04;100.00;101651.78;10234865;28;20448;-73
2023/04/21 04:44:14;;;;;;;30.67;15.30;;;;;;;6.14;100.00;101656.00;10203322;28;20104;-73
2023/04/21 04:49:14;;;;;;;33.38;17.73;;;;;;;6.16;100.00;101653.91;10241211;28;20038;-72
2023/04/21 04:54:15;;;;;;;25.75;13.98;;;;;;;6.23;100.00;101673.94;10235835;28;20055;-73
2023/04/21 04:59:15;;;;;;;29.38;14.75;;;;;;;5.84;100.00;101599.75;10194788;29;20054;-73
2023/04/21 05:04:16;;;;;;;27.38;14.98;;;;;;;6.31;100.00;101648.28;10222080;28;20058;-74
2023/04/21 05:09:16;;;;;;;28.35;14.65;;;;;;;6.47;100.00;101656.09;10217429;28;20039;-74
2023/04/21 05:14:17;;;;;;;25.67;13.40;;;;;;;6.53;100.00;101668.09;10217438;28;20032;-73
2023/04/21 05:19:18;;;;;;;23.63;13.77;;;;;;;6.56;100.00;101665.78;10203957;29;20048;-73
2023/04/21 05:24:23;;;;;;;21.58;12.13;;;;;;;6.58;100.00;101671.06;10191634;29;20098;-73
2023/04/21 05:29:23;;;;;;;23.95;13.20;;;;;;;6.64;100.00;101671.06;10195266;29;20122;-73
2023/04/21 05:34:24;;;;;;;19.77;12.80;;;;;;;6.58;100.00;101682.00;10173405;28;20500;-74
2023/04/21 05:39:26;;;;;;;23.30;13.57;;;;;;;6.91;100.00;101662.88;10177226;29;20047;-73
2023/04/21 05:44:27;;;;;;;25.23;12.60;;;;;;;7.04;100.00;101664.75;10160983;29;20064;-73
2023/04/21 05:49:27;;;;;;;21.05;11.88;;;;;;;7.16;100.00;101645.78;10182913;29;20504;-73
2023/04/21 05:54:28;;;;;;;19.25;12.23;;;;;;;7.41;100.00;101646.78;10192165;29;20056;-74
2023/04/21 05:59:28;;;;;;;22.52;10.90;;;;;;;7.77;100.00;101661.88;10193027;29;20107;-73
2023/04/21 06:04:29;;;;;;;19.95;11.55;;;;;;;7.91;100.00;101653.59;10193602;29;20032;-73
2023/04/21 06:09:29;;;;;;;19.67;10.90;;;;;;;8.16;100.00;101657.25;10177604;29;20104;-73
2023/04/21 06:14:30;;;;;;;17.30;11.02;;;;;;;8.20;100.00;101638.47;10191918;29;20032;-73
2023/04/21 06:19:35;;;;;;;16.23;9.90;;;;;;;8.54;100.00;101648.19;10198939;28;20066;-74
2023/04/21 06:24:36;;;;;;;18.95;9.52;;;;;;;8.83;100.00;101645.88;10208628;28;20055;-73
2023/04/21 06:29:36;;;;;;;16.05;8.73;;;;;;;9.01;100.00;101637.69;10176637;29;20127;-73
2023/04/21 06:34:37;;;;;;;19.55;9.98;;;;;;;9.10;100.00;101641.00;10175986;29;20040;-73
2023/04/21 06:39:38;;;;;;;21.27;9.95;;;;;;;9.46;100.00;101651.16;10174106;29;20043;-73
2023/04/21 06:44:39;;;;;;;15.90;10.13;;;;;;;9.79;100.00;101644.47;10175880;29;20135;-72
2023/04/21 06:49:39;;;;;;;17.20;8.57;;;;;;;10.02;100.00;101635.47;10208145;29;20050;-73
2023/04/21 06:54:40;;;;;;;17.85;9.63;;;;;;;10.25;100.00;101632.03;10223148;29;20065;-73
2023/04/21 06:59:40;;;;;;;22.88;8.93;;;;;;;10.35;100.00;101625.13;10208475;28;20043;-73
2023/04/21 07:04:41;;;;;;;14.73;9.02;;;;;;;10.61;100.00;101623.88;10224497;29;20036;-73
2023/04/21 07:09:42;;;;;;;14.88;9.18;;;;;;;10.93;100.00;101627.16;10215268;29;20028;-73
2023/04/21 07:14:42;;;;;;;19.73;8.57;;;;;;;11.09;100.00;101623.69;10214051;28;20060;-74
2023/04/21 07:19:43;;;;;;;16.02;8.30;;;;;;;11.37;100.00;101624.03;10233686;28;20047;-74
2023/04/21 07:24:43;;;;;;;18.40;8.52;;;;;;;11.54;100.00;101615.88;10222539;28;20054;-72
2023/04/21 07:29:44;;;;;;;16.77;8.50;;;;;;;11.64;100.00;101594.03;10261090;28;20031;-74
2023/04/21 07:34:45;;;;;;;13.63;7.40;;;;;;;11.78;100.00;101570.59;10232605;28;20039;-74
2023/04/21 07:39:46;;;;;;;14.55;9.35;;;;;;;12.10;100.00;101604.06;10227201;28;20130;-74
2023/04/21 07:44:47;;;;;;;18.27;7.78;;;;;;;12.24;100.00;101596.34;10249282;28;20035;-73
2023/04/21 07:49:48;;;;;;;16.95;8.40;;;;;;;12.44;100.00;101595.88;10257832;28;20071;-74
2023/04/21 07:54:49;;;;;;;21.85;8.93;;;;;;;12.58;100.00;101588.09;10244125;28;20102;-72
2023/04/21 07:59:50;;;;;;;14.00;7.97;;;;;;;12.84;100.00;101583.00;10275987;28;20043;-73
2023/04/21 08:04:50;;;;;;;23.40;8.63;;;;;;;13.00;100.00;101573.00;10216903;28;20094;-73
2023/04/21 08:09:51;;;;;;;25.70;10.50;;;;;;;13.22;100.00;101567.53;10256970;28;20102;-73
2023/04/21 08:14:51;;;;;;;19.00;8.23;;;;;;;13.47;100.00;101578.13;10265121;28;20066;-73
2023/04/21 08:19:52;;;;;;;12.40;7.85;;;;;;;13.48;100.00;101552.16;10261793;28;20054;-74
2023/04/21 08:24:52;;;;;;;18.73;8.00;;;;;;;13.87;100.00;101579.69;10257581;28;20035;-74
2023/04/21 08:29:53;;;;;;;21.23;7.63;;;;;;;14.06;100.00;101569.13;10242602;28;20067;-73
2023/04/21 08:34:53;;;;;;;13.60;7.25;;;;;;;14.15;100.00;101564.78;10258859;28;20049;-73
2023/04/21 08:39:54;;;;;;;16.85;7.38;;;;;;;14.39;100.00;101564.47;10246309;28;20039;-75
2023/04/21 08:44:55;;;;;;;13.93;7.55;;;;;;;14.50;100.00;101552.38;10232273;28;20351;-73
2023/04/21 08:49:55;;;;;;;16.85;7.03;;;;;;;14.63;100.00;101532.53;10249950;28;20031;-75
2023/04/21 08:54:56;;;;;;;16.05;7.75;;;;;;;14.84;100.00;101543.78;10218909;28;20054;-73
2023/04/21 08:59:56;;;;;;;12.43;7.10;;;;;;;15.07;100.00;101535.06;10266432;28;20043;-74
2023/04/21 09:04:58;;;;;;;11.60;6.63;;;;;;;15.30;100.00;101527.44;10250037;28;20038;-74
2023/04/21 09:10:02;;;;;;;12.68;7.00;;;;;;;15.50;100.00;101524.75;10242638;28;20494;-74
2023/04/21 09:15:07;;;;;;;15.80;6.85;;;;;;;15.64;100.00;101521.44;10220195;28;20050;-75
2023/04/21 09:20:15;;;;;;;15.95;7.13;;;;;;;15.80;100.00;101516.81;10232526;28;20043;-76
2023/04/21 09:25:16;;;;;;;11.25;6.50;;;;;;;15.97;100.00;101533.22;10274044;28;20038;-73
2023/04/21 09:30:18;;;;;;;14.98;6.45;;;;;;;16.09;100.00;101517.16;10245333;28;20039;-75
2023/04/21 09:35:18;;;;;;;14.02;6.88;;;;;;;16.26;100.00;101511.31;10257245;28;20106;-75
2023/04/21 09:40:19;;;;;;;16.17;7.70;;;;;;;16.43;100.00;101502.69;10268227;28;20043;-79
2023/04/21 09:45:20;;;;;;;16.58;6.57;;;;;;;16.80;100.00;101501.56;10232110;28;20031;-77
2023/04/21 09:50:21;;;;;;;17.80;6.85;;;;;;;17.06;100.00;101483.72;10232910;28;20039;-77
2023/04/21 09:55:25;;;;;;;13.50;6.10;;;;;;;17.30;100.00;101486.69;10274185;28;20106;-74
2023/04/21 10:00:30;;;;;;;11.70;6.82;;;;;;;17.48;100.00;101460.16;10255662;28;20053;-78
2023/04/21 10:05:30;;;;;;;19.63;7.65;;;;;;;17.63;100.00;101461.19;10256922;28;20039;-78
2023/04/21 10:10:32;;;;;;;14.93;6.45;;;;;;;17.87;100.00;101459.38;10236592;28;20043;-78
2023/04/21 10:15:34;;;;;;;16.80;6.82;;;;;;;18.10;100.00;101426.34;10261940;28;20095;-78
2023/04/21 10:21:07;;;;;;;12.25;5.10;;;;;;;18.21;100.00;101436.28;10231293;28;20035;-80
2023/04/21 10:26:12;;;;;;;13.00;5.55;;;;;;;18.26;100.00;101419.50;10217887;28;20131;-84
2023/04/21 10:31:22;;;;;;;10.10;5.18;;;;;;;18.58;100.00;101423.66;10199794;28;20843;-79
2023/04/21 10:36:23;;;;;;;16.67;6.20;;;;;;;18.71;100.00;101425.75;10269322;28;20081;-78
2023/04/21 10:41:30;;;;;;;13.23;5.07;;;;;;;18.99;100.00;101406.47;10240408;28;20540;-79
2023/04/21 10:46:32;;;;;;;9.25;4.03;;;;;;;18.63;96.96;101305.66;10255817;28;20043;-77
2023/04/21 10:57:00;;;;;;;8.23;4.90;;;;;;;19.43;95.39;101383.00;10260411;28;20466;-80
2023/04/21 11:02:05;;;;;;;8.75;3.95;;;;;;;19.49;93.02;101376.22;10255064;28;20049;-74
2023/04/21 11:07:35;;;;;;;18.42;5.00;;;;;;;19.66;92.46;101374.84;10294925;28;20034;-74
2023/04/21 11:12:39;;;;;;;14.20;6.00;;;;;;;19.71;90.33;101369.19;10209307;28;20039;-73
2023/04/21 11:17:42;;;;;;;19.33;4.70;;;;;;;19.68;87.59;101355.81;10222253;28;20059;-78
2023/04/21 11:22:42;;;;;;;16.05;4.63;;;;;;;19.76;85.09;101327.19;10255953;28;20071;-77
2023/04/21 11:27:54;;;;;;;10.07;4.10;;;;;;;20.05;84.53;101334.50;10222507;28;20507;-76
2023/04/21 11:32:55;;;;;;;13.57;4.70;;;;;;;19.95;85.91;101319.59;10238650;28;20039;-77
2023/04/21 11:37:55;;;;;;;17.00;4.20;;;;;;;20.23;86.65;101307.63;10222747;28;20047;-79
2023/04/21 11:42:56;;;;;;;12.98;4.07;;;;;;;20.32;81.60;101287.03;10237434;28;20036;-77
2023/04/21 11:48:14;;;;;;;12.30;3.97;;;;;;;20.38;79.26;101275.75;10219862;28;20039;-75
2023/04/21 11:53:15;;;;;;;8.98;3.42;;;;;;;20.80;78.67;101279.38;10220193;28;20045;-75
2023/04/21 11:58:16;;;;;;;12.57;3.90;;;;;;;21.16;75.54;101268.97;10220795;28;20058;-75
2023/04/21 12:03:18;;;;;;;8.85;2.95;;;;;;;21.73;72.97;101259.22;10236569;28;20049;-77
2023/04/21 12:08:18;;;;;;;11.38;3.50;;;;;;;22.06;70.45;101250.50;10245759;28;20041;-76
2023/04/21 12:13:22;;;;;;;9.02;2.97;;;;;;;22.22;68.77;101248.06;10234842;28;20043;-75
2023/04/21 12:18:26;;;;;;;10.20;3.10;;;;;;;22.55;65.56;101231.69;10235361;28;20530;-73
2023/04/21 12:23:26;;;;;;;12.25;3.90;;;;;;;22.31;65.53;101226.53;10220318;28;20039;-78
2023/04/21 12:28:28;;;;;;;10.45;3.80;;;;;;;22.01;63.43;101217.78;10235719;28;20063;-75
2023/04/21 12:33:28;;;;;;;6.18;3.03;;;;;;;21.56;64.46;101226.31;10241623;28;20058;-75
2023/04/21 12:38:29;;;;;;;10.52;3.63;;;;;;;22.07;60.79;101204.47;10255549;28;20038;-80
2023/04/21 12:43:30;;;;;;;5.50;2.42;;;;;;;23.14;62.43;101212.44;10272359;28;20039;-79
2023/04/21 12:48:30;;;;;;;9.63;2.97;;;;;;;23.06;56.73;101131.81;10256386;28;20035;-80
2023/04/21 12:53:31;;;;;;;12.85;3.10;;;;;;;22.39;55.82;101196.81;10241625;28;20045;-79
2023/04/21 12:58:31;;;;;;;11.13;2.90;;;;;;;22.04;56.33;101193.91;10266684;28;20043;-74
2023/04/21 13:03:32;;;;;;;9.13;2.55;;;;;;;22.29;55.05;101159.53;10257598;28;20050;-75
2023/04/21 13:08:32;;;;;;;15.20;3.45;;;;;;;23.30;55.55;101152.94;10257450;28;20035;-76
2023/04/21 13:13:33;;;;;;;9.73;2.58;;;;;;;23.52;52.89;101157.50;10215205;28;20075;-75
2023/04/21 13:18:34;;;;;;;9.20;2.42;;;;;;;23.47;52.64;101166.94;10233949;28;20039;-74
2023/04/21 13:23:35;;;;;;;7.85;2.60;;;;;;;23.67;51.30;101156.09;10233771;28;20046;-74
2023/04/21 13:28:36;;;;;;;18.45;3.05;;;;;;;22.51;51.27;101154.94;10249767;28;20220;-75
2023/04/21 13:33:36;;;;;;;20.08;3.95;;;;;;;22.39;51.00;101143.53;10234463;28;20039;-77
2023/04/21 13:38:39;;;;;;;10.82;3.20;;;;;;;22.90;52.74;101133.47;10217722;28;20051;-75
2023/04/21 13:43:40;;;;;;;15.43;3.80;;;;;;;22.99;52.94;101137.09;10250919;28;20077;-73
2023/04/21 13:48:40;;;;;;;7.80;2.70;;;;;;;24.19;48.75;101110.06;10216452;28;20042;-75
2023/04/21 13:53:41;;;;;;;9.18;4.30;;;;;;;23.77;49.85;101106.00;10233735;28;20044;-75
2023/04/21 13:58:41;;;;;;;10.20;2.65;;;;;;;22.80;50.12;101106.59;10233363;28;20043;-75
2023/04/21 14:03:42;;;;;;;7.93;2.85;;;;;;;21.82;52.07;101100.34;10249570;28;20047;-73
2023/04/21 14:08:42;;;;;;;8.75;2.72;;;;;;;22.61;52.65;101087.25;10216930;28;20372;-73
2023/04/21 14:13:43;;;;;;;6.68;2.83;;;;;;;23.74;50.09;101066.47;10232613;28;20035;-72
2023/04/21 14:18:45;;;;;;;10.55;2.90;;;;;;;22.52;48.57;101005.09;10236061;28;20039;-73
2023/04/21 14:23:45;;;;;;;9.57;3.20;;;;;;;23.13;50.53;101064.75;10231764;28;20039;-72
2023/04/21 14:28:46;;;;;;;8.77;2.83;;;;;;;23.74;49.34;101049.59;10216416;28;20043;-71
2023/04/21 14:33:46;;;;;;;6.20;2.80;;;;;;;23.11;49.34;101055.84;10252154;28;20047;-71
2023/04/21 14:38:47;;;;;;;11.73;4.15;;;;;;;22.59;51.37;101044.69;10228312;28;20645;-69
2023/04/21 14:43:52;;;;;;;10.52;3.00;;;;;;;22.61;50.86;101045.16;10254591;28;20042;-72
2023/04/21 14:48:53;;;;;;;12.02;3.28;;;;;;;22.12;50.53;101047.31;10235090;28;20039;-69
2023/04/21 14:53:53;;;;;;;6.85;3.25;;;;;;;22.03;50.34;101029.63;10284883;28;20391;-75
2023/04/21 14:58:53;;;;;;;10.55;4.32;;;;;;;21.92;50.77;101027.16;10239869;28;20514;-77
2023/04/21 15:03:56;;;;;;;10.25;3.33;;;;;;;21.47;52.15;101026.56;10270399;28;20059;-73
2023/04/21 15:08:56;;;;;;;9.95;3.47;;;;;;;22.13;51.56;101023.72;10226559;28;20050;-75
2023/04/21 15:13:57;;;;;;;10.18;3.60;;;;;;;22.18;49.23;100984.31;10232395;28;20066;-75
2023/04/21 15:18:57;;;;;;;7.78;3.67;;;;;;;22.94;49.95;100988.47;10254723;28;20038;-77
2023/04/21 15:23:58;;;;;;;9.90;3.10;;;;;;;23.34;49.03;100977.75;10237502;28;20039;-74
2023/04/21 15:28:58;;;;;;;7.05;3.22;;;;;;;24.55;49.41;100988.47;10278461;28;20039;-74
2023/04/21 15:33:59;;;;;;;9.48;3.38;;;;;;;24.95;48.80;100973.75;10259510;28;20510;-74
2023/04/21 15:38:59;;;;;;;9.13;4.38;;;;;;;25.29;48.00;100960.44;10257197;28;20085;-74
2023/04/21 15:44:00;;;;;;;6.38;3.30;;;;;;;25.60;46.82;100959.03;10292356;28;20089;-74
2023/04/21 15:49:00;;;;;;;9.40;4.45;;;;;;;25.47;46.54;100959.03;10243672;28;20364;-73
2023/04/21 15:54:01;;;;;;;5.65;4.30;;;;;;;25.30;47.04;100953.63;10260973;28;20035;-74
2023/04/21 15:59:02;;;;;;;7.43;3.55;;;;;;;25.09;45.82;100948.91;10277978;28;20066;-75
2023/04/21 16:04:04;;;;;;;6.60;4.20;;;;;;;24.94;44.61;100924.25;10261702;28;20050;-74
2023/04/21 16:09:04;;;;;;;10.80;3.95;;;;;;;24.67;45.43;100920.13;10264801;28;20058;-74
2023/04/21 16:14:05;;;;;;;7.47;3.65;;;;;;;24.95;44.86;100923.91;10220214;28;20062;-73
2023/04/21 16:19:05;;;;;;;10.68;4.15;;;;;;;25.17;44.89;100907.69;10222354;28;20038;-74
2023/04/21 16:24:06;;;;;;;11.55;4.47;;;;;;;24.93;44.53;100898.09;10243915;28;20051;-73
2023/04/21 16:29:07;;;;;;;4.85;3.55;;;;;;;24.71;44.60;100895.72;10238316;28;20097;-73
2023/04/21 16:34:07;;;;;;;10.43;4.00;;;;;;;24.76;44.21;100893.50;10292527;28;20462;-73
2023/04/21 16:39:08;;;;;;;7.57;3.55;;;;;;;24.72;44.29;100861.59;10225635;28;20442;-74
2023/04/21 16:44:08;;;;;;;8.70;3.53;;;;;;;23.84;44.31;100818.72;10258978;28;20035;-73
2023/04/21 16:49:11;;;;;;;7.03;3.80;;;;;;;23.78;44.71;100881.94;10273400;28;20050;-72
2023/04/21 16:54:11;;;;;;;9.18;3.53;;;;;;;23.35;45.76;100872.63;10246452;28;20050;-72
2023/04/21 16:59:12;;;;;;;7.15;4.88;;;;;;;22.51;46.09;100874.38;10243561;28;20035;-70
2023/04/21 17:04:14;;;;;;;7.25;3.92;;;;;;;22.43;48.17;100883.63;10241767;28;20051;-71
2023/04/21 17:09:15;;;;;;;8.50;3.63;;;;;;;21.76;47.50;100883.06;10291246;28;20130;-71
2023/04/21 17:14:15;;;;;;;7.10;3.65;;;;;;;21.10;48.83;100886.72;10257397;28;20517;-72
2023/04/21 17:19:16;;;;;;;7.35;3.60;;;;;;;20.27;50.30;100901.31;10247473;28;20098;-72
2023/04/21 17:24:16;;;;;;;7.28;3.50;;;;;;;19.07;51.32;100867.25;10241228;28;20042;-73
2023/04/21 17:29:17;;;;;;;10.95;3.67;;;;;;;18.68;54.18;100901.22;10273141;28;20058;-72
2023/04/21 17:34:17;;;;;;;6.28;3.83;;;;;;;18.42;54.28;100903.63;10250942;28;20031;-71
2023/04/21 17:39:18;;;;;;;9.00;3.90;;;;;;;18.15;55.18;100885.75;10189813;28;20051;-71
2023/04/21 17:44:19;;;;;;;10.23;5.35;;;;;;;17.89;56.18;100891.72;10164386;28;20083;-71
2023/04/21 17:49:21;;;;;;;10.93;4.03;;;;;;;17.72;57.33;100897.00;10169269;29;20067;-71
2023/04/21 17:54:22;;;;;;;6.88;3.97;;;;;;;17.53;58.31;100916.50;10177345;28;20127;-70
2023/04/21 17:59:24;;;;;;;6.70;3.67;;;;;;;17.34;57.74;100908.09;10177410;28;20047;-73
2023/04/21 18:04:25;;;;;;;7.47;3.67;;;;;;;17.20;59.30;100898.81;10200736;28;20119;-70
2023/04/21 18:09:26;;;;;;;7.45;3.90;;;;;;;17.00;59.95;100919.41;10175727;28;20192;-71
2023/04/21 18:14:26;;;;;;;8.75;3.75;;;;;;;16.88;60.46;100911.47;10152480;28;20043;-71
2023/04/21 18:19:27;;;;;;;8.77;3.92;;;;;;;16.73;61.92;100910.47;10169568;28;20040;-71
2023/04/21 18:24:28;;;;;;;6.90;4.47;;;;;;;16.60;62.20;100919.53;10186116;29;20131;-71
2023/04/21 18:29:28;;;;;;;9.15;3.63;;;;;;;16.10;63.31;100861.41;10152987;29;20051;-71
2023/04/21 18:34:29;;;;;;;7.40;4.15;;;;;;;16.23;64.21;100920.19;10173167;29;20040;-71
2023/04/21 18:39:29;;;;;;;6.53;4.22;;;;;;;16.04;64.61;100914.47;10186602;29;20036;-71
2023/04/21 18:44:30;;;;;;;8.07;4.68;;;;;;;15.85;66.11;100912.41;10191391;29;20051;-72
2023/04/21 18:49:31;;;;;;;8.25;3.97;;;;;;;15.60;67.95;100918.09;10176410;29;20040;-71
2023/04/21 18:54:31;;;;;;;6.28;4.20;;;;;;;15.38;67.79;100913.81;10208605;29;20504;-72
2023/04/21 18:59:32;;;;;;;11.85;4.57;;;;;;;15.26;69.32;100918.84;10209769;29;20080;-71
2023/04/21 19:04:32;;;;;;;13.32;4.55;;;;;;;15.04;70.40;100917.25;10197638;29;20040;-71
2023/04/21 19:09:33;;;;;;;6.70;4.50;;;;;;;14.84;71.32;100914.56;10196591;28;20042;-71
2023/04/21 19:14:33;;;;;;;6.25;4.70;;;;;;;14.67;72.13;100910.16;10187529;28;20065;-71
2023/04/21 19:19:34;;;;;;;9.52;4.55;;;;;;;14.68;72.88;100933.19;10175483;29;20059;-71
2023/04/21 19:24:34;;;;;;;8.57;4.10;;;;;;;14.50;74.33;100926.25;10160840;29;20610;-71
2023/04/21 19:29:35;;;;;;;7.40;4.43;;;;;;;14.33;76.02;100938.47;10191930;29;20052;-71
2023/04/21 19:34:36;;;;;;;10.82;4.78;;;;;;;14.11;77.17;100924.06;10175374;29;20141;-71
2023/04/21 19:39:36;;;;;;;8.43;5.32;;;;;;;13.99;79.00;100926.28;10225991;28;20051;-71
2023/04/21 19:44:37;;;;;;;6.18;5.10;;;;;;;13.86;80.07;100924.88;10186946;28;20127;-71
2023/04/21 19:49:38;;;;;;;11.27;5.63;;;;;;;13.78;81.34;100945.63;10240951;28;20047;-71
2023/04/21 19:54:38;;;;;;;10.57;5.47;;;;;;;13.65;83.33;100940.63;10255561;28;20545;-71
2023/04/21 19:59:39;;;;;;;8.63;4.70;;;;;;;13.46;84.80;100946.66;10235503;28;20432;-71
2023/04/21 20:04:41;;;;;;;9.00;4.90;;;;;;;13.34;86.87;100948.84;10202888;28;20043;-71
2023/04/21 20:09:41;;;;;;;9.02;5.50;;;;;;;13.15;86.65;100919.97;10235797;28;20074;-71
2023/04/21 20:14:50;;;;;;;9.73;5.03;;;;;;;13.23;88.52;100945.19;10227788;28;20047;-69
2023/04/21 20:19:51;;;;;;;8.15;5.07;;;;;;;13.12;89.69;100935.16;10199729;28;20427;-70
2023/04/21 20:24:52;;;;;;;8.15;5.40;;;;;;;13.16;91.40;100933.53;10216562;28;20044;-70
2023/04/21 20:29:53;;;;;;;8.80;5.63;;;;;;;13.04;92.37;100919.94;10235045;28;20051;-71
2023/04/21 20:34:53;;;;;;;10.75;6.57;;;;;;;13.11;94.03;100928.81;10234683;28;20054;-71
2023/04/21 20:39:55;;;;;;;11.93;6.88;;;;;;;13.17;94.18;100931.56;10240180;28;20375;-70
2023/04/21 20:44:56;;;;;;;13.15;7.05;;;;;;;13.11;94.78;100922.47;10256624;28;20082;-70
2023/04/21 20:49:57;;;;;;;10.27;6.75;;;;;;;12.97;95.64;100927.63;10288060;28;20038;-70
2023/04/21 20:54:58;;;;;;;9.70;6.40;;;;;;;12.82;95.94;100911.00;10273274;28;20443;-70
2023/04/21 20:59:58;;;;;;;16.02;6.55;;;;;;;12.82;96.83;100917.34;10272290;28;20043;-70
2023/04/21 21:04:59;;;;;;;8.98;6.28;;;;;;;12.37;98.16;100854.41;10256853;28;20070;-69
2023/04/21 21:09:59;;;;;;;11.85;5.95;;;;;;;12.62;99.26;100911.72;10256046;28;20047;-71
2023/04/21 21:15:00;;;;;;;12.38;7.40;;;;;;;12.63;98.87;100900.41;10243964;28;20039;-70
2023/04/21 21:20:01;;;;;;;12.13;6.88;;;;;;;12.76;100.00;100914.84;10273939;28;20448;-70
2023/04/21 21:25:01;;;;;;;11.10;6.53;;;;;;;12.77;98.47;100897.13;10257332;28;20042;-71
2023/04/21 21:30:02;;;;;;;8.13;6.38;;;;;;;12.71;98.92;100897.13;10256351;28;20419;-70
2023/04/21 21:35:03;;;;;;;9.05;6.65;;;;;;;12.65;99.29;100900.97;10241336;28;20050;-69
2023/04/21 21:40:05;;;;;;;10.20;7.30;;;;;;;12.59;100.00;100907.56;10249162;28;20035;-70
2023/04/21 21:45:06;;;;;;;10.98;6.57;;;;;;;12.38;100.00;100879.00;10249025;28;20043;-70
2023/04/21 21:50:07;;;;;;;13.23;7.35;;;;;;;12.41;100.00;100892.25;10251370;28;20491;-70
2023/04/21 21:55:07;;;;;;;11.35;7.10;;;;;;;12.30;100.00;100890.53;10251212;28;20039;-70
2023/04/21 22:00:11;;;;;;;11.98;7.32;;;;;;;12.12;100.00;100877.97;10248131;28;20063;-70
2023/04/21 22:05:12;;;;;;;13.05;6.97;;;;;;;12.28;100.00;100895.47;10233377;28;20046;-71
2023/04/21 22:10:13;;;;;;;9.23;7.30;;;;;;;12.28;100.00;100878.91;10248671;28;20054;-70
2023/04/21 22:15:13;;;;;;;11.43;7.93;;;;;;;12.39;100.00;100904.66;10216689;28;20043;-71
2023/04/21 22:20:14;;;;;;;10.68;8.15;;;;;;;12.32;100.00;100900.19;10249510;28;20031;-69
2023/04/21 22:25:14;;;;;;;9.52;7.63;;;;;;;12.26;100.00;100901.25;10259022;28;20043;-70
2023/04/21 22:30:15;;;;;;;12.73;8.02;;;;;;;12.31;100.00;100909.56;10288518;28;20043;-68
2023/04/21 22:35:15;;;;;;;11.35;7.80;;;;;;;12.23;100.00;100899.00;10271280;28;20046;-71
2023/04/21 22:40:16;;;;;;;14.05;8.15;;;;;;;12.00;100.00;100883.66;10263317;28;20045;-71
2023/04/21 22:45:16;;;;;;;12.32;8.13;;;;;;;11.90;100.00;100876.13;10278433;28;20071;-70
2023/04/21 22:50:18;;;;;;;11.35;8.18;;;;;;;11.95;100.00;100913.13;10297312;28;20031;-69